Time;durP1;ratioP1;P1;durP2;ratioP2;P2;SDS_P1;SDS_P2;PMS_P1;PMS_P2;Temp;Humidity;BMP_temperature;BMP_pressure;BME280_temperature;BME280_humidity;BME280_pressure;Samples;Min_cycle;Max_cycle;Signal;HPM_P1;HPM_P2
2022/08/02 00:01:01;;;;;;;2.80;1.80;;;19.40;94.20;;;;;;5022510;28;20459;-66
2022/08/02 00:03:30;;;;;;;2.50;1.40;;;19.30;94.20;;;;;;5015676;28;20728;-65
2022/08/02 00:05:57;;;;;;;3.30;1.50;;;19.20;94.60;;;;;;5006919;28;20445;-66
2022/08/02 00:08:25;;;;;;;2.83;1.77;;;19.20;94.80;;;;;;5017882;28;20881;-65
2022/08/02 00:10:52;;;;;;;2.63;1.67;;;19.10;95.60;;;;;;5020282;28;20448;-65
2022/08/02 00:13:21;;;;;;;3.30;2.10;;;19.10;95.70;;;;;;5011492;28;20444;-66
2022/08/02 00:15:48;;;;;;;5.07;2.17;;;19.10;95.70;;;;;;5006306;28;20443;-66
2022/08/02 00:18:16;;;;;;;3.50;1.43;;;19.20;96.20;;;;;;5010998;28;20443;-65
2022/08/02 00:20:44;;;;;;;4.30;1.93;;;19.30;96.10;;;;;;5009960;28;20443;-66
2022/08/02 00:23:11;;;;;;;2.73;1.90;;;19.30;96.20;;;;;;5011339;28;21058;-66
2022/08/02 00:25:38;;;;;;;4.93;2.20;;;19.30;96.20;;;;;;5006416;28;20435;-65
2022/08/02 00:28:09;;;;;;;4.13;2.10;;;19.30;96.30;;;;;;5011774;28;20440;-69
2022/08/02 00:30:36;;;;;;;3.73;2.33;;;19.30;96.30;;;;;;5004539;28;20449;-65
2022/08/02 00:33:05;;;;;;;3.20;1.80;;;19.30;96.20;;;;;;5011284;28;20505;-66
2022/08/02 00:35:32;;;;;;;4.30;1.80;;;19.10;96.80;;;;;;5011171;28;20493;-65
2022/08/02 00:38:01;;;;;;;4.10;1.97;;;19.00;97.20;;;;;;5015719;28;20450;-65
2022/08/02 00:40:28;;;;;;;5.00;2.03;;;18.90;97.80;;;;;;5016825;28;20458;-66
2022/08/02 00:43:03;;;;;;;3.77;2.00;;;18.90;97.60;;;;;;5017990;28;20767;-66
2022/08/02 00:45:30;;;;;;;3.20;1.57;;;19.00;97.90;;;;;;5014617;28;20481;-66
2022/08/02 00:47:58;;;;;;;4.80;1.97;;;19.00;98.00;;;;;;5014984;28;20513;-66
2022/08/02 00:50:25;;;;;;;3.70;2.23;;;19.00;98.20;;;;;;5016569;28;20884;-65
2022/08/02 00:52:53;;;;;;;2.70;2.00;;;19.00;98.60;;;;;;5020768;28;20446;-66
2022/08/02 00:55:21;;;;;;;5.40;2.03;;;19.00;98.60;;;;;;5016871;28;20454;-65
2022/08/02 00:57:49;;;;;;;3.37;2.23;;;19.10;98.70;;;;;;5017286;28;20800;-66
2022/08/02 01:00:17;;;;;;;3.70;2.10;;;19.10;99.00;;;;;;5018230;28;20435;-66
2022/08/02 01:02:44;;;;;;;2.90;1.70;;;19.20;98.50;;;;;;5018199;28;20446;-66
2022/08/02 01:05:12;;;;;;;4.40;2.23;;;19.20;98.90;;;;;;5017295;28;20510;-66
2022/08/02 01:07:40;;;;;;;3.80;1.87;;;19.30;98.40;;;;;;5019356;28;20454;-66
2022/08/02 01:10:10;;;;;;;4.17;1.93;;;19.40;98.30;;;;;;5015895;28;20484;-66
2022/08/02 01:12:39;;;;;;;3.00;2.00;;;19.40;98.30;;;;;;5019889;28;20452;-71
2022/08/02 01:15:09;;;;;;;3.93;2.00;;;19.40;97.80;;;;;;5018268;28;20451;-66
2022/08/02 01:17:46;;;;;;;3.23;1.87;;;19.40;97.90;;;;;;5019790;28;20521;-65
2022/08/02 01:20:25;;;;;;;3.50;2.20;;;19.40;98.20;;;;;;5016731;28;20862;-65
2022/08/02 01:23:16;;;;;;;2.97;1.83;;;19.40;98.00;;;;;;5019196;28;20521;-65
2022/08/02 01:26:03;;;;;;;3.83;2.17;;;19.40;98.10;;;;;;5013871;28;20504;-65
2022/08/02 01:28:37;;;;;;;6.63;2.40;;;19.40;98.10;;;;;;5017140;28;20451;-66
2022/08/02 01:31:12;;;;;;;3.73;2.00;;;19.40;98.20;;;;;;5015433;28;20446;-65
2022/08/02 01:33:44;;;;;;;4.77;2.20;;;19.40;98.20;;;;;;5022397;28;20450;-66
2022/08/02 01:36:14;;;;;;;4.50;2.30;;;19.50;98.30;;;;;;5019065;28;20474;-65
2022/08/02 01:38:46;;;;;;;4.17;2.97;;;19.50;98.40;;;;;;5023095;28;20443;-65
2022/08/02 01:41:19;;;;;;;3.40;2.20;;;19.50;98.40;;;;;;5021323;28;20455;-65
2022/08/02 01:43:50;;;;;;;2.70;1.70;;;19.60;98.40;;;;;;5024103;28;20449;-66
2022/08/02 01:46:18;;;;;;;3.10;1.83;;;19.50;98.20;;;;;;5023404;28;20470;-66
2022/08/02 01:48:46;;;;;;;4.13;2.10;;;19.50;97.90;;;;;;5023358;28;20462;-66
2022/08/02 01:51:18;;;;;;;2.80;1.97;;;19.50;98.30;;;;;;5022942;28;20457;-65
2022/08/02 01:53:49;;;;;;;3.50;2.17;;;19.50;98.50;;;;;;5022658;28;20637;-66
2022/08/02 01:56:19;;;;;;;4.67;2.20;;;19.50;98.40;;;;;;5014625;28;20443;-66
2022/08/02 01:58:49;;;;;;;4.67;2.77;;;19.40;98.70;;;;;;5023760;28;20513;-66
2022/08/02 02:01:19;;;;;;;5.77;2.43;;;19.30;99.10;;;;;;5021360;28;20448;-67
2022/08/02 02:03:48;;;;;;;3.07;2.00;;;19.30;99.50;;;;;;5023088;28;20449;-66
2022/08/02 02:06:16;;;;;;;3.97;2.47;;;19.30;99.00;;;;;;5019280;28;20446;-65
2022/08/02 02:08:44;;;;;;;3.60;1.80;;;19.30;99.00;;;;;;5022920;28;20442;-65
2022/08/02 02:11:12;;;;;;;3.40;1.77;;;19.30;99.10;;;;;;5021091;28;20829;-66
2022/08/02 02:13:41;;;;;;;3.73;2.00;;;19.40;99.40;;;;;;5021854;28;20440;-66
2022/08/02 02:16:11;;;;;;;3.70;2.30;;;19.30;99.20;;;;;;5015809;28;20494;-66
2022/08/02 02:18:42;;;;;;;3.30;2.27;;;19.30;99.20;;;;;;5010355;28;20871;-66
2022/08/02 02:21:10;;;;;;;4.00;2.07;;;19.30;99.10;;;;;;5007705;28;21060;-66
2022/08/02 02:23:37;;;;;;;3.00;2.07;;;19.30;99.00;;;;;;5017223;28;20443;-66
2022/08/02 02:26:05;;;;;;;3.40;1.90;;;19.30;98.90;;;;;;5015798;28;20930;-66
2022/08/02 02:28:35;;;;;;;2.47;1.60;;;19.30;99.30;;;;;;5023780;28;20918;-66
2022/08/02 02:31:06;;;;;;;3.60;2.37;;;19.40;99.30;;;;;;5019179;28;20491;-66
2022/08/02 02:33:38;;;;;;;3.60;2.23;;;19.40;99.40;;;;;;5022049;28;20561;-66
2022/08/02 02:36:10;;;;;;;5.33;2.33;;;19.40;99.40;;;;;;5018223;28;20808;-66
2022/08/02 02:38:39;;;;;;;5.47;2.50;;;19.30;99.90;;;;;;5021595;28;20465;-66
2022/08/02 02:41:07;;;;;;;3.73;2.37;;;19.20;99.90;;;;;;5018836;28;20458;-66
2022/08/02 02:43:36;;;;;;;4.23;2.50;;;19.20;99.90;;;;;;5023126;28;20447;-65
2022/08/02 02:46:06;;;;;;;4.10;2.13;;;19.20;99.90;;;;;;5021755;28;20858;-66
2022/08/02 02:48:36;;;;;;;3.97;2.03;;;19.20;99.90;;;;;;5022721;28;20849;-66
2022/08/02 02:51:05;;;;;;;3.87;2.47;;;19.20;99.90;;;;;;5018155;28;20556;-66
2022/08/02 02:53:33;;;;;;;8.77;2.47;;;19.30;99.90;;;;;;5022617;28;20443;-66
2022/08/02 02:56:01;;;;;;;3.27;2.40;;;19.30;99.90;;;;;;5020770;28;20442;-65
2022/08/02 02:58:28;;;;;;;9.27;2.47;;;19.30;99.90;;;;;;5023235;28;20449;-66
2022/08/02 03:03:44;;;;;;;5.90;2.17;;;19.30;99.90;;;;;;5023288;28;20431;-66
2022/08/02 03:06:12;;;;;;;5.10;2.73;;;19.30;99.90;;;;;;5016744;28;20508;-66
2022/08/02 03:08:39;;;;;;;5.27;2.40;;;19.40;99.90;;;;;;5021660;28;20447;-65
2022/08/02 03:11:08;;;;;;;5.63;2.40;;;19.30;99.90;;;;;;5019500;28;20483;-65
2022/08/02 03:13:35;;;;;;;4.10;2.30;;;19.20;99.90;;;;;;5022138;28;20749;-66
2022/08/02 03:16:03;;;;;;;5.00;2.20;;;19.20;99.90;;;;;;5014887;28;20445;-66
2022/08/02 03:18:31;;;;;;;5.00;4.50;;;19.20;99.90;;;;;;5020917;28;20450;-66
2022/08/02 03:21:01;;;;;;;5.37;4.87;;;19.20;99.90;;;;;;5019048;28;20452;-66
2022/08/02 03:23:28;;;;;;;5.93;3.30;;;19.20;99.90;;;;;;5023205;28;20792;-66
2022/08/02 03:25:56;;;;;;;4.47;2.30;;;19.20;99.90;;;;;;5016659;28;20449;-66
2022/08/02 03:28:23;;;;;;;5.30;2.60;;;19.20;99.90;;;;;;5023884;28;20434;-66
2022/08/02 03:30:51;;;;;;;5.43;3.20;;;19.20;99.90;;;;;;5021919;28;20541;-66
2022/08/02 03:33:19;;;;;;;3.90;3.07;;;19.20;99.90;;;;;;5020945;28;20924;-67
2022/08/02 03:35:47;;;;;;;4.67;3.07;;;19.10;99.90;;;;;;5017946;28;21018;-67
2022/08/02 03:38:18;;;;;;;4.47;2.80;;;19.10;99.90;;;;;;5021023;28;20962;-67
2022/08/02 03:40:47;;;;;;;3.50;2.60;;;19.10;99.90;;;;;;5021858;28;20776;-68
2022/08/02 03:43:15;;;;;;;3.73;2.77;;;19.10;99.90;;;;;;5020512;28;20478;-68
2022/08/02 03:45:44;;;;;;;4.40;3.10;;;19.10;99.90;;;;;;5020952;28;20479;-68
2022/08/02 03:48:12;;;;;;;4.47;3.00;;;19.10;99.90;;;;;;5021567;28;20521;-71
2022/08/02 03:50:41;;;;;;;4.17;2.83;;;19.10;99.90;;;;;;5012346;28;20595;-67
2022/08/02 03:53:09;;;;;;;4.57;3.23;;;19.10;99.90;;;;;;5020813;28;20513;-67
2022/08/02 03:55:39;;;;;;;3.27;2.40;;;19.10;99.90;;;;;;5019763;28;20884;-68
2022/08/02 03:58:06;;;;;;;4.50;2.10;;;19.10;99.90;;;;;;5022245;28;20438;-67
2022/08/02 04:00:33;;;;;;;3.20;2.20;;;19.10;99.90;;;;;;5018132;28;20442;-67
2022/08/02 04:03:00;;;;;;;3.53;2.53;;;19.10;99.90;;;;;;5016800;28;20501;-70
2022/08/02 04:05:27;;;;;;;3.60;2.30;;;19.00;99.90;;;;;;5021225;28;20503;-67
2022/08/02 04:07:56;;;;;;;6.23;3.43;;;18.90;99.90;;;;;;5018962;28;20838;-67
2022/08/02 04:10:23;;;;;;;3.90;2.63;;;18.90;99.90;;;;;;5020353;28;20488;-67
2022/08/02 04:12:52;;;;;;;7.73;2.40;;;18.90;99.90;;;;;;5021240;28;20444;-68
2022/08/02 04:15:19;;;;;;;3.83;2.63;;;18.90;99.90;;;;;;5020551;28;20447;-67
2022/08/02 04:17:52;;;;;;;3.40;2.20;;;18.90;99.90;;;;;;5019767;28;20435;-67
2022/08/02 04:20:21;;;;;;;3.63;2.20;;;18.80;99.90;;;;;;5017887;28;20443;-67
2022/08/02 04:22:55;;;;;;;3.53;2.87;;;18.90;99.90;;;;;;5016798;28;20442;-67
2022/08/02 04:25:25;;;;;;;4.40;2.57;;;18.90;99.90;;;;;;5013115;28;20450;-68
2022/08/02 04:27:54;;;;;;;3.50;2.40;;;18.90;99.90;;;;;;5013489;28;20446;-67
2022/08/02 04:30:21;;;;;;;4.27;2.33;;;18.90;99.90;;;;;;5015448;28;20711;-68
2022/08/02 04:32:49;;;;;;;3.40;2.40;;;18.90;99.90;;;;;;5011135;28;20509;-68
2022/08/02 04:35:17;;;;;;;3.40;2.60;;;18.90;99.90;;;;;;5009408;28;20447;-69
2022/08/02 04:37:44;;;;;;;3.43;2.33;;;18.90;99.90;;;;;;5011898;28;20451;-67
2022/08/02 04:40:14;;;;;;;4.63;2.90;;;18.90;99.90;;;;;;5010338;28;20813;-67
2022/08/02 04:42:41;;;;;;;5.23;3.17;;;18.90;99.90;;;;;;5007123;28;20494;-69
2022/08/02 04:45:11;;;;;;;5.30;2.97;;;18.90;99.90;;;;;;5009479;28;20471;-67
2022/08/02 04:47:39;;;;;;;3.90;2.60;;;19.00;99.90;;;;;;5005866;28;20446;-68
2022/08/02 04:50:07;;;;;;;7.27;2.90;;;19.00;99.90;;;;;;5010140;28;20488;-69
2022/08/02 04:52:34;;;;;;;3.47;2.90;;;19.00;99.90;;;;;;5005348;28;20443;-68
2022/08/02 04:55:01;;;;;;;5.93;3.43;;;19.00;99.90;;;;;;5008271;28;20486;-68
2022/08/02 05:00:16;;;;;;;4.47;2.97;;;18.90;99.90;;;;;;5008436;28;20418;-67
2022/08/02 05:02:44;;;;;;;4.10;2.60;;;18.90;99.90;;;;;;5012492;28;20470;-68
2022/08/02 05:05:11;;;;;;;3.67;2.30;;;19.00;99.90;;;;;;5014286;28;20511;-68
2022/08/02 05:07:42;;;;;;;4.73;2.80;;;19.00;99.90;;;;;;5018705;28;20525;-68
2022/08/02 05:10:10;;;;;;;3.87;2.50;;;19.10;99.90;;;;;;5019345;28;20490;-67
2022/08/02 05:12:38;;;;;;;3.27;2.27;;;19.10;99.90;;;;;;5019207;28;20536;-67
2022/08/02 05:15:06;;;;;;;3.30;2.40;;;19.00;99.90;;;;;;5018379;28;20447;-67
2022/08/02 05:17:35;;;;;;;3.37;2.33;;;19.10;99.90;;;;;;5020075;28;20450;-68
2022/08/02 05:20:02;;;;;;;4.30;2.30;;;19.10;99.90;;;;;;5012077;28;20466;-67
2022/08/02 05:22:30;;;;;;;3.40;2.10;;;19.10;99.90;;;;;;5018375;28;20443;-69
2022/08/02 05:24:57;;;;;;;3.03;2.03;;;19.10;99.90;;;;;;5017247;28;20520;-67
2022/08/02 05:27:24;;;;;;;2.67;1.80;;;19.20;99.90;;;;;;5017658;28;21002;-67
2022/08/02 05:29:53;;;;;;;3.77;2.30;;;19.30;99.90;;;;;;5020405;28;20460;-67
2022/08/02 05:32:21;;;;;;;7.10;2.87;;;19.30;99.90;;;;;;5018812;28;20443;-66
2022/08/02 05:34:49;;;;;;;3.83;2.60;;;19.40;99.90;;;;;;5003721;28;20914;-67
2022/08/02 05:37:16;;;;;;;2.80;1.90;;;19.40;99.90;;;;;;5017379;28;20526;-66
2022/08/02 05:39:43;;;;;;;3.90;2.40;;;19.40;99.90;;;;;;5020292;28;20481;-66
2022/08/02 05:42:10;;;;;;;4.20;2.47;;;19.40;99.90;;;;;;5018129;28;20444;-66
2022/08/02 05:44:38;;;;;;;6.20;2.97;;;19.50;99.90;;;;;;5014703;28;20470;-66
2022/08/02 05:47:07;;;;;;;4.53;2.60;;;19.50;99.90;;;;;;5019400;28;20487;-66
2022/08/02 05:49:34;;;;;;;4.60;2.30;;;19.60;99.90;;;;;;5013831;28;20945;-67
2022/08/02 05:52:15;;;;;;;4.47;2.40;;;19.60;99.90;;;;;;5018003;28;20517;-66
2022/08/02 05:54:49;;;;;;;4.93;2.00;;;19.70;99.90;;;;;;5019671;28;20470;-67
2022/08/02 05:57:31;;;;;;;2.60;1.90;;;19.70;99.90;;;;;;5017937;28;20447;-66
2022/08/02 06:00:06;;;;;;;5.20;2.33;;;19.70;99.90;;;;;;5017547;28;20930;-67
2022/08/02 06:02:53;;;;;;;2.83;2.27;;;19.70;99.90;;;;;;5018447;28;20448;-66
2022/08/02 06:05:22;;;;;;;4.00;2.23;;;19.80;99.90;;;;;;5016184;28;20451;-67
2022/08/02 06:07:51;;;;;;;3.83;1.93;;;19.90;99.90;;;;;;5019587;28;20471;-66
2022/08/02 06:10:22;;;;;;;3.10;2.00;;;20.00;99.90;;;;;;5016423;28;20567;-67
2022/08/02 06:12:51;;;;;;;3.60;1.87;;;20.10;99.90;;;;;;5017408;28;20436;-67
2022/08/02 06:15:19;;;;;;;3.70;2.40;;;20.20;99.90;;;;;;5012348;28;20448;-66
2022/08/02 06:17:47;;;;;;;3.17;2.13;;;20.20;99.90;;;;;;5019042;28;20438;-66
2022/08/02 06:20:18;;;;;;;4.03;1.90;;;20.20;99.90;;;;;;5024324;28;20439;-66
2022/08/02 06:22:46;;;;;;;5.80;2.83;;;20.30;99.90;;;;;;5022809;28;20489;-66
2022/08/02 06:25:15;;;;;;;2.87;2.17;;;20.40;99.90;;;;;;5024447;28;20444;-66
2022/08/02 06:27:42;;;;;;;3.53;2.63;;;20.40;99.90;;;;;;5022529;28;20923;-66
2022/08/02 06:30:11;;;;;;;2.73;1.80;;;20.50;99.90;;;;;;5018503;28;20451;-66
2022/08/02 06:32:37;;;;;;;3.17;2.13;;;20.60;99.90;;;;;;5025656;28;20479;-66
2022/08/02 06:35:06;;;;;;;3.67;2.10;;;20.60;99.90;;;;;;5022109;28;20536;-66
2022/08/02 06:37:38;;;;;;;3.63;1.67;;;20.70;99.90;;;;;;5025110;28;20483;-66
2022/08/02 06:40:14;;;;;;;3.03;2.10;;;20.80;99.90;;;;;;5022091;28;20451;-66
2022/08/02 06:42:49;;;;;;;3.50;2.10;;;20.90;99.90;;;;;;5018925;28;20449;-66
2022/08/02 06:45:17;;;;;;;3.17;1.83;;;21.00;99.90;;;;;;5018459;28;20473;-67
2022/08/02 06:47:46;;;;;;;2.80;1.43;;;20.90;98.70;;;;;;5025785;28;20479;-67
2022/08/02 06:50:13;;;;;;;4.70;2.10;;;20.90;98.80;;;;;;5021160;28;20502;-66
2022/08/02 06:52:40;;;;;;;3.17;2.17;;;21.00;99.20;;;;;;5022348;28;20547;-69
2022/08/02 06:55:08;;;;;;;2.70;1.53;;;21.10;99.30;;;;;;5022639;28;20488;-66
2022/08/02 06:57:35;;;;;;;2.57;1.40;;;21.20;98.80;;;;;;5022109;28;20495;-66
2022/08/02 07:00:07;;;;;;;3.47;1.87;;;21.30;99.20;;;;;;5021688;28;20488;-66
2022/08/02 07:02:35;;;;;;;2.30;1.40;;;21.40;98.90;;;;;;5022401;28;20544;-66
2022/08/02 07:05:03;;;;;;;2.93;1.90;;;21.50;98.40;;;;;;5012116;28;20738;-66
2022/08/02 07:07:31;;;;;;;2.27;1.30;;;21.60;98.50;;;;;;5021783;28;20452;-66
2022/08/02 07:10:02;;;;;;;3.93;1.47;;;21.70;97.90;;;;;;5022098;28;20443;-66
2022/08/02 07:12:31;;;;;;;3.40;1.37;;;21.80;96.30;;;;;;5024025;28;20513;-66
2022/08/02 07:14:58;;;;;;;2.43;1.40;;;21.90;96.20;;;;;;5021427;28;20867;-66
2022/08/02 07:17:26;;;;;;;2.37;1.33;;;22.00;95.70;;;;;;5018785;28;20446;-66
2022/08/02 07:19:53;;;;;;;3.30;1.27;;;22.20;95.80;;;;;;5019252;28;20485;-68
2022/08/02 07:22:22;;;;;;;2.20;1.20;;;22.30;94.90;;;;;;5024614;28;20956;-66
2022/08/02 07:24:49;;;;;;;3.43;1.50;;;22.30;93.30;;;;;;5021258;28;20948;-66
2022/08/02 07:27:16;;;;;;;2.60;1.13;;;22.50;93.30;;;;;;5021512;28;20480;-66
2022/08/02 07:29:43;;;;;;;2.37;1.17;;;22.60;93.30;;;;;;5023285;28;20443;-66
2022/08/02 07:32:10;;;;;;;3.43;1.10;;;22.70;92.40;;;;;;5022731;28;20493;-66
2022/08/02 07:34:38;;;;;;;2.23;1.30;;;22.80;91.20;;;;;;5019427;28;20896;-66
2022/08/02 07:37:06;;;;;;;2.57;1.10;;;23.00;90.80;;;;;;5021385;28;20446;-66
2022/08/02 07:39:32;;;;;;;2.53;1.30;;;23.10;91.30;;;;;;5023725;28;20468;-66
2022/08/02 07:41:59;;;;;;;2.60;1.30;;;23.20;91.60;;;;;;5021050;28;20478;-66
2022/08/02 07:44:30;;;;;;;2.80;1.23;;;23.30;90.60;;;;;;5024234;28;21012;-66
2022/08/02 07:46:57;;;;;;;2.20;1.10;;;23.40;90.00;;;;;;5018345;28;20554;-67
2022/08/02 07:49:24;;;;;;;4.07;1.37;;;23.60;90.30;;;;;;5023394;28;20477;-66
2022/08/02 07:51:52;;;;;;;2.17;1.03;;;23.70;88.50;;;;;;5021464;28;20520;-67
2022/08/02 07:54:19;;;;;;;3.60;1.10;;;23.70;90.10;;;;;;5020432;28;20968;-66
2022/08/02 07:56:49;;;;;;;2.30;0.97;;;23.90;88.90;;;;;;5019878;28;20443;-66
2022/08/02 07:59:16;;;;;;;2.20;1.10;;;24.00;88.20;;;;;;5022191;28;20524;-66
2022/08/02 08:01:43;;;;;;;2.40;1.40;;;24.10;86.10;;;;;;5021431;28;20443;-66
2022/08/02 08:04:10;;;;;;;2.30;1.30;;;24.10;86.60;;;;;;5023246;28;20953;-66
2022/08/02 08:06:37;;;;;;;2.57;1.50;;;24.30;88.20;;;;;;5022650;28;20434;-66
2022/08/02 08:09:06;;;;;;;2.90;1.37;;;24.40;83.20;;;;;;5020076;28;20925;-66
2022/08/02 08:11:33;;;;;;;2.17;1.30;;;24.50;84.10;;;;;;5020150;28;20490;-66
2022/08/02 08:14:00;;;;;;;2.60;1.40;;;24.60;84.00;;;;;;5023432;28;20446;-67
2022/08/02 08:16:27;;;;;;;2.80;1.53;;;24.70;85.30;;;;;;5020763;28;20465;-66
2022/08/02 08:18:54;;;;;;;2.97;1.10;;;24.90;83.90;;;;;;5021108;28;20534;-66
2022/08/02 08:21:21;;;;;;;2.20;1.10;;;25.10;82.90;;;;;;5022005;28;20533;-67
2022/08/02 08:23:50;;;;;;;2.50;1.50;;;25.10;82.00;;;;;;5021751;28;20940;-66
2022/08/02 08:26:18;;;;;;;3.70;1.47;;;25.30;81.50;;;;;;5022326;28;20469;-67
2022/08/02 08:28:45;;;;;;;3.83;1.20;;;25.40;80.50;;;;;;5018889;28;20451;-66
2022/08/02 08:31:12;;;;;;;1.87;1.03;;;25.50;80.30;;;;;;5023441;28;20517;-66
2022/08/02 08:33:39;;;;;;;3.27;1.30;;;25.60;78.20;;;;;;5019640;28;20845;-66
2022/08/02 08:36:11;;;;;;;2.40;1.50;;;25.70;75.30;;;;;;5022538;28;20447;-66
2022/08/02 08:38:38;;;;;;;3.03;1.30;;;25.70;76.20;;;;;;5020201;28;20462;-66
2022/08/02 08:41:05;;;;;;;2.50;1.50;;;25.90;76.90;;;;;;5025680;28;20945;-66
2022/08/02 08:43:33;;;;;;;4.03;1.50;;;26.00;75.90;;;;;;5025123;28;20476;-67
2022/08/02 08:46:00;;;;;;;2.70;1.70;;;26.10;74.90;;;;;;5026291;28;20473;-66
2022/08/02 08:48:29;;;;;;;2.43;1.17;;;26.20;74.30;;;;;;5024643;28;20497;-66
2022/08/02 08:51:01;;;;;;;2.40;1.13;;;26.20;74.00;;;;;;5015884;28;20438;-67
2022/08/02 08:53:31;;;;;;;2.47;1.27;;;26.30;75.40;;;;;;5015773;28;20533;-67
2022/08/02 08:56:00;;;;;;;2.73;1.23;;;26.50;74.50;;;;;;5017264;28;20857;-66
2022/08/02 08:58:27;;;;;;;2.30;1.10;;;26.50;73.50;;;;;;5015948;28;20489;-66
2022/08/02 09:00:56;;;;;;;3.20;1.10;;;26.60;72.30;;;;;;5015845;28;20470;-67
2022/08/02 09:03:23;;;;;;;1.90;0.90;;;26.70;73.00;;;;;;5015847;28;20481;-67
2022/08/02 09:05:50;;;;;;;2.23;1.00;;;26.80;71.10;;;;;;5015773;28;20478;-66
2022/08/02 09:08:17;;;;;;;2.17;1.00;;;26.90;70.00;;;;;;5016006;28;20478;-66
2022/08/02 09:10:46;;;;;;;2.20;1.10;;;26.90;69.90;;;;;;5012147;28;20446;-66
2022/08/02 09:13:15;;;;;;;2.60;1.20;;;27.10;71.80;;;;;;5015701;28;20529;-66
2022/08/02 09:15:46;;;;;;;1.83;0.93;;;27.20;71.30;;;;;;5015462;28;20513;-66
2022/08/02 09:18:14;;;;;;;2.90;1.00;;;27.30;69.50;;;;;;5015549;28;20454;-66
2022/08/02 09:20:57;;;;;;;2.10;1.00;;;27.50;63.90;;;;;;5026304;28;20481;-66
2022/08/02 09:23:25;;;;;;;2.13;1.03;;;27.60;65.50;;;;;;5021315;28;20435;-66
2022/08/02 09:25:57;;;;;;;2.67;1.20;;;27.60;67.50;;;;;;5026432;28;20445;-67
2022/08/02 09:28:29;;;;;;;2.33;1.10;;;27.80;66.10;;;;;;5024035;28;20838;-67
2022/08/02 09:31:05;;;;;;;2.03;1.10;;;27.90;65.40;;;;;;5025906;28;20445;-68
2022/08/02 09:33:35;;;;;;;1.90;1.00;;;27.90;65.10;;;;;;5023979;28;20445;-66
2022/08/02 09:36:04;;;;;;;3.50;2.50;;;28.00;62.20;;;;;;5025260;28;20927;-67
2022/08/02 09:38:33;;;;;;;2.10;1.00;;;27.90;62.20;;;;;;5024363;28;20474;-66
2022/08/02 09:41:01;;;;;;;1.97;1.03;;;27.90;60.80;;;;;;5025733;28;20840;-67
2022/08/02 09:43:39;;;;;;;2.10;0.93;;;28.00;61.60;;;;;;5019990;28;20989;-66
2022/08/02 09:46:11;;;;;;;1.90;0.90;;;28.10;60.70;;;;;;5024236;28;20473;-66
2022/08/02 09:48:48;;;;;;;2.37;1.00;;;28.10;58.40;;;;;;5024615;28;20842;-67
2022/08/02 09:51:19;;;;;;;2.50;1.30;;;28.20;57.60;;;;;;5020281;28;20788;-66
2022/08/02 09:53:47;;;;;;;2.10;1.10;;;28.20;58.80;;;;;;5025636;28;20461;-66
2022/08/02 09:56:15;;;;;;;3.80;1.23;;;28.30;55.20;;;;;;5020437;28;20960;-66
2022/08/02 09:58:42;;;;;;;2.30;1.30;;;28.40;56.70;;;;;;5022639;28;20499;-66
2022/08/02 10:01:10;;;;;;;2.30;1.20;;;28.50;56.80;;;;;;5024734;28;20829;-66
2022/08/02 10:03:37;;;;;;;2.20;1.10;;;28.50;58.40;;;;;;5024795;28;20442;-66
2022/08/02 10:06:05;;;;;;;2.30;1.10;;;28.60;58.40;;;;;;5020343;28;20540;-66
2022/08/02 10:08:33;;;;;;;2.23;1.23;;;28.70;56.00;;;;;;5023065;28;20493;-66
2022/08/02 10:11:00;;;;;;;2.43;1.20;;;28.70;55.70;;;;;;5022909;28;20439;-66
2022/08/02 10:13:29;;;;;;;2.00;1.10;;;28.80;56.70;;;;;;5022658;28;21004;-66
2022/08/02 10:15:57;;;;;;;2.30;1.23;;;28.70;55.20;;;;;;5020657;28;20477;-67
2022/08/02 10:18:28;;;;;;;2.87;1.10;;;28.80;56.50;;;;;;5025761;28;20481;-66
2022/08/02 10:20:56;;;;;;;2.13;1.07;;;28.80;56.40;;;;;;5025845;28;20442;-66
2022/08/02 10:23:27;;;;;;;2.17;1.40;;;29.00;55.40;;;;;;5022591;28;20542;-66
2022/08/02 10:25:55;;;;;;;2.13;1.20;;;29.00;55.10;;;;;;5023473;28;20451;-66
2022/08/02 10:28:31;;;;;;;2.83;1.10;;;29.00;54.60;;;;;;5017399;28;20481;-67
2022/08/02 10:30:59;;;;;;;3.40;1.20;;;28.90;53.90;;;;;;5025852;28;20524;-66
2022/08/02 10:33:28;;;;;;;3.40;1.37;;;28.90;54.10;;;;;;5015179;28;20514;-66
2022/08/02 10:35:58;;;;;;;4.20;1.50;;;28.90;54.80;;;;;;5021676;28;20925;-67
2022/08/02 10:38:27;;;;;;;2.10;1.30;;;29.00;56.80;;;;;;5022167;28;20492;-66
2022/08/02 10:40:56;;;;;;;3.20;1.57;;;29.00;54.90;;;;;;5025051;28;20485;-66
2022/08/02 10:43:44;;;;;;;2.63;1.20;;;29.00;53.40;;;;;;5020385;28;20514;-68
2022/08/02 10:46:29;;;;;;;1.93;1.07;;;29.00;55.40;;;;;;5021534;28;20564;-66
2022/08/02 10:49:06;;;;;;;5.90;1.40;;;29.00;55.10;;;;;;5022658;28;20489;-66
2022/08/02 10:52:09;;;;;;;2.10;1.30;;;29.10;56.20;;;;;;5018553;28;20493;-66
2022/08/02 10:54:40;;;;;;;2.63;1.60;;;29.20;56.00;;;;;;4991801;28;20533;-66
2022/08/02 10:57:22;;;;;;;2.40;1.30;;;29.30;55.50;;;;;;5018805;28;20438;-66
2022/08/02 10:59:50;;;;;;;2.57;1.30;;;29.50;54.90;;;;;;5020202;28;20556;-67
2022/08/02 11:02:39;;;;;;;2.70;1.07;;;29.50;55.50;;;;;;5018534;28;20447;-66
2022/08/02 11:05:13;;;;;;;2.33;1.10;;;29.60;54.40;;;;;;5022384;28;20449;-66
2022/08/02 11:07:42;;;;;;;2.10;1.20;;;29.70;55.30;;;;;;5018766;28;20441;-66
2022/08/02 11:10:32;;;;;;;2.30;1.13;;;29.70;54.90;;;;;;5021420;28;20466;-66
2022/08/02 11:13:01;;;;;;;3.07;1.30;;;29.70;51.30;;;;;;5019485;28;20914;-66
2022/08/02 11:15:46;;;;;;;2.77;1.20;;;29.70;52.60;;;;;;5023285;28;20455;-66
2022/08/02 11:18:14;;;;;;;2.57;1.47;;;29.80;53.80;;;;;;5020720;28;20864;-66
2022/08/02 11:20:41;;;;;;;2.30;1.30;;;30.00;53.90;;;;;;5020573;28;20473;-69
2022/08/02 11:23:37;;;;;;;3.33;1.37;;;30.10;52.70;;;;;;5018728;28;21000;-69
2022/08/02 11:26:44;;;;;;;5.20;1.13;;;30.30;53.70;;;;;;5018227;28;20467;-67
2022/08/02 11:29:11;;;;;;;2.77;1.00;;;30.40;53.00;;;;;;5020756;28;20450;-66
2022/08/02 11:31:40;;;;;;;2.50;1.10;;;30.50;52.00;;;;;;5019795;28;20438;-66
2022/08/02 11:34:17;;;;;;;2.00;1.17;;;30.40;52.50;;;;;;5020756;28;20435;-66
2022/08/02 11:36:46;;;;;;;2.83;1.50;;;30.50;51.20;;;;;;5021585;28;20485;-66
2022/08/02 11:39:14;;;;;;;4.17;1.43;;;30.40;51.30;;;;;;5019576;28;20446;-67
2022/08/02 11:41:48;;;;;;;2.50;1.30;;;30.50;51.20;;;;;;5013448;28;20438;-66
2022/08/02 11:44:15;;;;;;;3.43;1.27;;;30.50;51.10;;;;;;5016871;28;20501;-67
2022/08/02 11:46:42;;;;;;;2.07;1.10;;;30.40;50.50;;;;;;5017242;28;20523;-66
2022/08/02 11:49:14;;;;;;;2.40;1.40;;;30.40;50.60;;;;;;5017379;28;20478;-66
2022/08/02 11:52:09;;;;;;;2.30;1.20;;;30.50;49.70;;;;;;5018558;28;20446;-66
2022/08/02 11:54:39;;;;;;;2.37;1.43;;;30.50;50.30;;;;;;5018388;28;20447;-66
2022/08/02 11:57:12;;;;;;;3.03;1.67;;;30.60;50.90;;;;;;5018850;28;20926;-66
2022/08/02 11:59:40;;;;;;;2.30;1.33;;;30.70;51.10;;;;;;5021073;28;20477;-66
2022/08/02 12:02:08;;;;;;;2.80;1.23;;;30.90;50.00;;;;;;5022267;28;20450;-66
2022/08/02 12:04:36;;;;;;;2.10;1.20;;;30.90;49.20;;;;;;5021657;28;20477;-67
2022/08/02 12:07:03;;;;;;;2.60;1.40;;;31.00;50.10;;;;;;5015927;28;20505;-66
2022/08/02 12:09:32;;;;;;;2.83;1.00;;;31.10;49.30;;;;;;5021598;28;20488;-66
2022/08/02 12:12:00;;;;;;;2.87;1.10;;;31.20;47.90;;;;;;5019572;28;20476;-66
2022/08/02 12:14:30;;;;;;;1.80;0.87;;;31.20;47.80;;;;;;5021083;28;20530;-66
2022/08/02 12:19:43;;;;;;;3.40;1.30;;;31.10;46.50;;;;;;5013158;28;20438;-66
2022/08/02 12:22:17;;;;;;;2.37;1.20;;;31.00;48.40;;;;;;5012221;28;20529;-66
2022/08/02 12:24:46;;;;;;;2.23;1.23;;;31.00;49.70;;;;;;5012475;28;20525;-66
2022/08/02 12:27:33;;;;;;;2.70;1.20;;;31.10;48.40;;;;;;5011961;28;20482;-67
2022/08/02 12:30:05;;;;;;;2.30;1.30;;;30.90;46.10;;;;;;5016721;28;20443;-67
2022/08/02 12:32:32;;;;;;;2.10;1.20;;;30.90;47.20;;;;;;5017345;28;20524;-67
2022/08/02 12:35:04;;;;;;;2.80;1.50;;;30.80;47.40;;;;;;5023032;28;20500;-66
2022/08/02 12:37:31;;;;;;;2.10;1.17;;;30.70;48.50;;;;;;5020431;28;20537;-66
2022/08/02 12:39:58;;;;;;;2.50;1.50;;;30.60;47.90;;;;;;5020691;28;20470;-66
2022/08/02 12:42:25;;;;;;;2.30;1.13;;;30.70;47.70;;;;;;5016531;28;20465;-67
2022/08/02 12:44:54;;;;;;;4.83;1.20;;;30.70;47.80;;;;;;5020217;28;20538;-66
2022/08/02 12:47:23;;;;;;;2.43;1.20;;;30.60;46.40;;;;;;5017981;28;20472;-67
2022/08/02 12:50:11;;;;;;;2.40;1.27;;;30.60;47.60;;;;;;5022571;28;20994;-66
2022/08/02 12:52:38;;;;;;;2.43;1.53;;;30.60;49.50;;;;;;5020384;28;20521;-66
2022/08/02 12:55:16;;;;;;;2.27;1.13;;;30.60;49.40;;;;;;5019260;28;20541;-66
2022/08/02 12:57:54;;;;;;;2.70;1.33;;;30.50;49.90;;;;;;5020233;28;20443;-66
2022/08/02 13:00:26;;;;;;;2.07;1.23;;;30.60;51.10;;;;;;5019498;28;20496;-66
2022/08/02 13:02:55;;;;;;;2.63;1.30;;;30.70;49.70;;;;;;5017273;28;20532;-66
2022/08/02 13:05:27;;;;;;;2.20;1.10;;;30.70;48.90;;;;;;5017466;28;20849;-67
2022/08/02 13:07:55;;;;;;;1.90;1.27;;;30.80;50.00;;;;;;5022414;28;20929;-67
2022/08/02 13:10:23;;;;;;;2.17;1.07;;;30.80;49.30;;;;;;5021646;28;20450;-66